Time;durP1;ratioP1;P1;durP2;ratioP2;P2;SDS_P1;SDS_P2;PMS_P1;PMS_P2;Temp;Humidity;BMP_temperature;BMP_pressure;BME280_temperature;BME280_humidity;BME280_pressure;Samples;Min_cycle;Max_cycle;Signal;HPM_P1;HPM_P2
2022/11/05 05:00:21;;;;;;;1.63;1.63;;;5.60;99.90;;;;;;6037765;23;20195;-72
2022/11/05 05:02:48;;;;;;;3.13;1.50;;;5.60;99.90;;;;;;6064158;23;20170;-71
2022/11/05 05:05:15;;;;;;;3.05;2.20;;;5.60;99.90;;;;;;6064964;23;20190;-72
2022/11/05 05:07:42;;;;;;;3.22;2.92;;;5.50;99.90;;;;;;6066452;23;20539;-73
2022/11/05 05:10:11;;;;;;;1.13;1.13;;;5.50;99.90;;;;;;6066223;23;20177;-72
2022/11/05 05:12:37;;;;;;;5.18;2.30;;;5.50;99.90;;;;;;6035139;23;20182;-71
2022/11/05 05:15:05;;;;;;;4.22;1.98;;;5.50;99.90;;;;;;6036535;23;20178;-71
2022/11/05 05:17:33;;;;;;;1.55;1.45;;;5.50;99.90;;;;;;6036398;23;20213;-70
2022/11/05 05:22:43;;;;;;;1.55;1.55;;;5.40;99.90;;;;;;6036607;23;20170;-70
2022/11/05 05:25:10;;;;;;;5.05;1.65;;;5.40;99.90;;;;;;6036369;23;20183;-69
2022/11/05 05:27:37;;;;;;;0.90;0.90;;;5.40;99.90;;;;;;6036034;23;20186;-70
2022/11/05 05:30:04;;;;;;;3.25;1.60;;;5.40;99.90;;;;;;6036381;23;20621;-70
2022/11/05 05:32:32;;;;;;;2.08;1.95;;;5.40;99.90;;;;;;6036388;23;20202;-70
2022/11/05 05:34:59;;;;;;;0.80;0.77;;;5.30;99.90;;;;;;6035349;23;20187;-70
2022/11/05 05:37:26;;;;;;;4.82;2.25;;;5.40;99.90;;;;;;6035498;23;20577;-69
2022/11/05 05:39:53;;;;;;;2.63;2.42;;;5.40;99.90;;;;;;6036827;23;20209;-71
2022/11/05 05:42:21;;;;;;;2.00;1.90;;;5.40;99.90;;;;;;6037528;23;20206;-69
2022/11/05 05:44:48;;;;;;;1.25;1.25;;;5.40;99.90;;;;;;6036481;23;20182;-69
2022/11/05 05:47:15;;;;;;;1.65;1.55;;;5.40;99.90;;;;;;6036800;23;20511;-70
2022/11/05 05:49:43;;;;;;;1.35;1.35;;;5.40;99.90;;;;;;6036786;23;20193;-72
2022/11/05 05:52:10;;;;;;;4.63;3.28;;;5.40;99.90;;;;;;6037273;23;20207;-71
2022/11/05 05:54:36;;;;;;;2.80;1.65;;;5.40;99.90;;;;;;6045857;23;20189;-69
2022/11/05 05:57:03;;;;;;;3.13;1.33;;;5.40;99.90;;;;;;6037939;23;20186;-71
2022/11/05 05:59:30;;;;;;;1.70;1.10;;;5.40;99.90;;;;;;6036330;23;20625;-69
2022/11/05 06:01:57;;;;;;;2.25;2.15;;;5.40;99.90;;;;;;6035787;23;20210;-70
2022/11/05 06:04:23;;;;;;;21.98;2.97;;;5.40;99.90;;;;;;6035813;23;20186;-69
2022/11/05 06:06:51;;;;;;;3.60;3.28;;;5.40;99.90;;;;;;6035679;23;20188;-70
2022/11/05 06:09:18;;;;;;;2.33;2.15;;;5.40;99.90;;;;;;6036307;23;20186;-72
2022/11/05 06:11:45;;;;;;;2.20;2.10;;;5.40;99.90;;;;;;6037019;23;20221;-70
2022/11/05 06:14:12;;;;;;;3.55;3.22;;;5.40;99.90;;;;;;6034460;23;20183;-69
2022/11/05 06:16:39;;;;;;;1.67;1.50;;;5.40;99.90;;;;;;6036433;23;20183;-69
2022/11/05 06:19:06;;;;;;;2.10;1.35;;;5.40;99.90;;;;;;6035976;23;20201;-70
2022/11/05 06:21:33;;;;;;;1.85;1.50;;;5.40;99.90;;;;;;6036342;23;20498;-69
2022/11/05 06:24:01;;;;;;;3.42;2.53;;;5.40;99.90;;;;;;6035001;23;20226;-70
2022/11/05 06:26:28;;;;;;;3.53;2.30;;;5.40;99.90;;;;;;6036243;23;20263;-70
2022/11/05 06:28:55;;;;;;;6.97;3.85;;;5.30;99.90;;;;;;6035213;23;20185;-71
2022/11/05 06:31:22;;;;;;;3.17;2.97;;;5.30;99.90;;;;;;6035514;23;20210;-70
2022/11/05 06:33:48;;;;;;;14.95;2.60;;;5.30;99.90;;;;;;6034283;23;20194;-70
2022/11/05 06:36:17;;;;;;;1.17;1.15;;;5.30;99.90;;;;;;6034722;23;20518;-70
2022/11/05 06:38:44;;;;;;;7.97;4.53;;;5.30;99.90;;;;;;6035408;23;20191;-70
2022/11/05 06:41:12;;;;;;;1.60;1.50;;;5.30;99.90;;;;;;6035330;23;20207;-71
2022/11/05 06:43:39;;;;;;;3.58;3.40;;;5.40;99.90;;;;;;6035226;23;20297;-70
2022/11/05 06:46:06;;;;;;;11.68;2.83;;;5.30;99.90;;;;;;6035706;23;20642;-70
2022/11/05 06:48:34;;;;;;;4.20;3.80;;;5.40;99.90;;;;;;6035614;23;20194;-70
2022/11/05 06:51:00;;;;;;;6.07;4.40;;;5.40;99.90;;;;;;6036228;23;20494;-71
2022/11/05 06:53:28;;;;;;;2.13;2.03;;;5.40;99.90;;;;;;6035524;23;20186;-70
2022/11/05 06:55:54;;;;;;;5.80;3.13;;;5.30;99.90;;;;;;6035787;23;20190;-71
2022/11/05 06:58:22;;;;;;;4.57;2.35;;;5.40;99.90;;;;;;6034771;23;20183;-70
2022/11/05 07:00:50;;;;;;;1.90;1.90;;;5.40;99.90;;;;;;6034717;23;20210;-70
2022/11/05 07:03:16;;;;;;;3.75;1.65;;;5.40;99.90;;;;;;6035391;23;20178;-70
2022/11/05 07:05:47;;;;;;;2.78;2.60;;;5.40;99.90;;;;;;6035616;23;20191;-70
2022/11/05 07:08:14;;;;;;;5.63;3.90;;;5.40;99.90;;;;;;6035250;23;20174;-70
2022/11/05 07:10:41;;;;;;;3.72;3.53;;;5.50;99.90;;;;;;6036392;23;20205;-70
2022/11/05 07:13:07;;;;;;;5.55;3.85;;;5.50;99.90;;;;;;6035003;23;20182;-70
2022/11/05 07:15:36;;;;;;;4.05;3.95;;;5.50;99.90;;;;;;6035818;23;20205;-70
2022/11/05 07:18:06;;;;;;;4.35;3.40;;;5.50;99.90;;;;;;6036217;23;20190;-70
2022/11/05 07:20:33;;;;;;;5.93;5.47;;;5.60;99.90;;;;;;6035736;23;20214;-70
2022/11/05 07:23:04;;;;;;;2.35;1.77;;;5.60;99.90;;;;;;6035434;23;20519;-70
2022/11/05 07:25:32;;;;;;;1.67;1.58;;;5.70;99.90;;;;;;6036355;23;20197;-70
2022/11/05 07:27:58;;;;;;;2.65;2.53;;;5.70;99.90;;;;;;6036418;23;20242;-69
2022/11/05 07:30:25;;;;;;;7.65;2.67;;;5.70;99.90;;;;;;6036897;23;20183;-70
2022/11/05 07:32:53;;;;;;;6.43;3.72;;;5.80;99.90;;;;;;6035492;23;20187;-69
2022/11/05 07:35:20;;;;;;;8.93;1.92;;;5.80;99.90;;;;;;6034998;23;20574;-70
2022/11/05 07:37:48;;;;;;;2.42;2.33;;;5.80;99.90;;;;;;6034832;23;20187;-69
2022/11/05 07:40:18;;;;;;;3.45;2.35;;;5.90;99.90;;;;;;6034983;23;20187;-69
2022/11/05 07:42:45;;;;;;;2.33;2.08;;;5.90;99.90;;;;;;6034475;23;20284;-69
2022/11/05 07:45:12;;;;;;;6.72;2.97;;;5.90;99.90;;;;;;6034081;23;20184;-70
2022/11/05 07:47:45;;;;;;;1.75;1.63;;;6.00;99.90;;;;;;6034726;23;20187;-70
2022/11/05 07:50:14;;;;;;;5.07;2.90;;;6.00;99.90;;;;;;6035595;23;20177;-69
2022/11/05 07:52:41;;;;;;;3.20;1.67;;;6.10;99.90;;;;;;6044948;23;20580;-70
2022/11/05 07:55:09;;;;;;;6.53;2.38;;;6.10;99.90;;;;;;6037950;23;20187;-70
2022/11/05 07:57:41;;;;;;;3.70;2.00;;;6.20;99.90;;;;;;6038308;23;20178;-70
2022/11/05 08:00:12;;;;;;;3.30;2.47;;;6.30;99.90;;;;;;6037264;23;20230;-69
2022/11/05 08:02:39;;;;;;;14.38;6.25;;;6.40;99.90;;;;;;6036315;23;20212;-69
2022/11/05 08:05:05;;;;;;;12.70;7.45;;;6.50;99.90;;;;;;6037404;23;20298;-70
2022/11/05 08:07:34;;;;;;;6.10;5.80;;;6.50;99.90;;;;;;6037674;23;20483;-70
2022/11/05 08:10:02;;;;;;;2.08;2.03;;;6.60;99.90;;;;;;6037551;23;20496;-69
2022/11/05 08:12:29;;;;;;;3.38;2.40;;;6.70;99.90;;;;;;6037638;23;20508;-69
2022/11/05 08:14:55;;;;;;;1.33;1.33;;;6.80;99.90;;;;;;6036326;23;20187;-69
2022/11/05 08:17:22;;;;;;;3.05;2.85;;;6.90;99.90;;;;;;6037182;23;20187;-70
2022/11/05 08:19:49;;;;;;;4.28;2.45;;;7.00;99.90;;;;;;6035686;23;20187;-68
2022/11/05 08:22:15;;;;;;;1.90;1.80;;;7.00;99.90;;;;;;6036552;23;20240;-70
2022/11/05 08:24:43;;;;;;;3.20;3.00;;;7.20;99.90;;;;;;6037193;23;20515;-71
2022/11/05 08:27:10;;;;;;;6.10;2.40;;;7.30;99.90;;;;;;6037804;23;20266;-73
2022/11/05 08:29:37;;;;;;;3.80;2.92;;;7.70;99.90;;;;;;6036817;23;20195;-71
2022/11/05 08:32:04;;;;;;;4.80;3.30;;;8.20;99.90;;;;;;6036172;23;20219;-70
2022/11/05 08:34:30;;;;;;;4.30;2.22;;;8.80;99.90;;;;;;6037278;23;20183;-70
2022/11/05 08:36:59;;;;;;;1.75;1.65;;;9.00;99.90;;;;;;6036416;23;20184;-71
2022/11/05 08:39:26;;;;;;;3.55;3.10;;;9.00;99.90;;;;;;6038023;23;20185;-71
2022/11/05 08:41:54;;;;;;;4.18;2.85;;;9.30;99.90;;;;;;6037791;23;20232;-71
2022/11/05 08:44:21;;;;;;;14.23;3.30;;;9.70;99.90;;;;;;6036827;23;20188;-70
2022/11/05 08:46:48;;;;;;;2.58;1.75;;;9.80;99.90;;;;;;6037896;23;20245;-71
2022/11/05 08:49:14;;;;;;;9.50;3.97;;;9.70;99.90;;;;;;6037706;23;20226;-70
2022/11/05 08:51:43;;;;;;;1.80;1.70;;;9.30;99.90;;;;;;6037205;23;20691;-70
2022/11/05 08:54:09;;;;;;;7.22;3.63;;;9.00;99.90;;;;;;6037361;23;20195;-70
2022/11/05 08:56:36;;;;;;;13.10;5.25;;;8.80;99.90;;;;;;6037788;23;20184;-69
2022/11/05 08:59:04;;;;;;;4.30;3.97;;;8.60;99.90;;;;;;6037432;23;20697;-70
2022/11/05 09:01:32;;;;;;;1.75;1.65;;;8.50;99.90;;;;;;6036171;23;20212;-69
2022/11/05 09:03:59;;;;;;;5.93;3.58;;;8.50;99.90;;;;;;6035710;23;20185;-71
2022/11/05 09:06:25;;;;;;;2.15;2.10;;;8.60;99.90;;;;;;6036239;23;20190;-70
2022/11/05 09:08:52;;;;;;;2.20;2.10;;;8.60;99.90;;;;;;6037031;23;20523;-69
2022/11/05 09:11:19;;;;;;;2.53;2.42;;;8.70;99.90;;;;;;6037145;23;20200;-70
2022/11/05 09:13:45;;;;;;;3.10;1.85;;;8.70;99.90;;;;;;6035824;23;20200;-70
2022/11/05 09:16:18;;;;;;;2.03;1.85;;;8.60;99.90;;;;;;6036255;23;20190;-68
2022/11/05 09:18:45;;;;;;;2.05;1.90;;;8.70;99.90;;;;;;6037738;23;20220;-69
2022/11/05 09:21:12;;;;;;;5.00;2.17;;;8.70;99.90;;;;;;6035778;23;20213;-70
2022/11/05 09:23:39;;;;;;;1.40;1.40;;;8.80;99.90;;;;;;6036696;23;20206;-69
2022/11/05 09:26:06;;;;;;;1.65;1.45;;;8.80;99.90;;;;;;6036732;23;20209;-69
2022/11/05 09:28:32;;;;;;;0.82;0.82;;;8.80;99.90;;;;;;6037540;23;20263;-71
2022/11/05 09:31:00;;;;;;;4.07;1.25;;;8.90;99.90;;;;;;6036414;23;20524;-69
2022/11/05 09:33:28;;;;;;;1.40;1.30;;;8.90;99.90;;;;;;6036063;23;20797;-70
2022/11/05 09:35:54;;;;;;;3.10;1.90;;;8.90;99.90;;;;;;6036577;23;20192;-70
2022/11/05 09:38:21;;;;;;;2.60;1.35;;;9.00;99.90;;;;;;6037227;23;20188;-69
2022/11/05 09:40:55;;;;;;;2.17;1.50;;;9.00;99.90;;;;;;6036357;23;20686;-70
2022/11/05 09:43:26;;;;;;;1.15;1.15;;;9.10;99.90;;;;;;6035790;23;20210;-71
2022/11/05 09:45:58;;;;;;;6.45;2.72;;;9.10;99.90;;;;;;6037572;23;20179;-71
2022/11/05 09:48:30;;;;;;;5.03;2.22;;;9.20;99.90;;;;;;6036990;23;20179;-70
2022/11/05 09:50:58;;;;;;;3.33;1.95;;;9.20;99.90;;;;;;6037008;23;20650;-71
2022/11/05 09:53:25;;;;;;;1.73;1.63;;;9.30;99.90;;;;;;6035659;23;20253;-71
2022/11/05 09:55:54;;;;;;;4.50;3.13;;;9.30;99.90;;;;;;6037832;23;20268;-70
2022/11/05 09:58:27;;;;;;;1.13;1.10;;;9.40;99.90;;;;;;6037042;23;20191;-71
2022/11/05 10:00:54;;;;;;;1.10;1.10;;;9.40;99.90;;;;;;6036199;23;20263;-70
2022/11/05 10:03:23;;;;;;;0.77;0.77;;;9.50;99.90;;;;;;6036377;23;20199;-71
2022/11/05 10:05:53;;;;;;;1.13;1.13;;;9.60;99.90;;;;;;6036694;23;20184;-69
2022/11/05 10:08:23;;;;;;;4.32;3.00;;;9.60;99.90;;;;;;6037517;23;20188;-70
2022/11/05 10:10:53;;;;;;;1.38;1.38;;;9.70;99.90;;;;;;6036936;23;20532;-70
2022/11/05 10:13:26;;;;;;;5.00;1.08;;;9.70;99.90;;;;;;6036400;23;20184;-70
2022/11/05 10:15:59;;;;;;;1.20;0.88;;;9.80;99.90;;;;;;6037056;23;20169;-71
2022/11/05 10:18:30;;;;;;;0.98;0.93;;;9.90;99.90;;;;;;6036406;23;20635;-69
2022/11/05 10:20:58;;;;;;;2.17;1.42;;;9.90;99.90;;;;;;6036972;23;20205;-70
2022/11/05 10:23:27;;;;;;;1.70;1.60;;;10.00;99.90;;;;;;6035812;23;20211;-68
2022/11/05 10:25:56;;;;;;;1.77;1.00;;;10.10;99.90;;;;;;6036456;23;20238;-70
2022/11/05 10:28:25;;;;;;;6.63;1.52;;;10.10;99.90;;;;;;6036529;23;20184;-69
2022/11/05 10:30:57;;;;;;;5.20;0.68;;;10.20;99.90;;;;;;6036178;23;20208;-68
2022/11/05 10:33:30;;;;;;;1.10;1.00;;;10.30;99.90;;;;;;6036307;23;20248;-70
2022/11/05 10:36:02;;;;;;;1.20;1.10;;;10.30;99.90;;;;;;6036466;23;20175;-69
2022/11/05 10:38:29;;;;;;;2.05;0.65;;;10.40;99.90;;;;;;6036861;23;20196;-70
2022/11/05 10:41:08;;;;;;;0.65;0.65;;;10.40;99.90;;;;;;6036015;23;20205;-69
2022/11/05 10:43:41;;;;;;;0.63;0.63;;;10.50;99.90;;;;;;6036693;23;20181;-69
2022/11/05 10:46:22;;;;;;;0.88;0.88;;;10.50;99.90;;;;;;6036168;23;20171;-70
2022/11/05 10:49:00;;;;;;;0.85;0.85;;;10.60;99.90;;;;;;6037391;23;20170;-70
2022/11/05 10:51:29;;;;;;;0.88;0.88;;;10.60;99.90;;;;;;6035257;23;20208;-71
2022/11/05 10:54:00;;;;;;;1.38;1.02;;;10.70;99.90;;;;;;6035350;23;20183;-71
2022/11/05 10:56:29;;;;;;;0.43;0.43;;;10.70;99.90;;;;;;6034007;23;20174;-70
2022/11/05 10:58:58;;;;;;;4.30;0.93;;;10.80;99.90;;;;;;6036856;23;20193;-71
2022/11/05 11:01:25;;;;;;;0.63;0.63;;;10.80;99.90;;;;;;6033710;23;20235;-71
2022/11/05 11:04:04;;;;;;;0.73;0.60;;;10.80;99.90;;;;;;6034978;23;20189;-70
2022/11/05 11:06:36;;;;;;;0.88;0.88;;;10.90;99.90;;;;;;6035446;23;20184;-69
2022/11/05 11:09:08;;;;;;;1.27;1.27;;;11.00;99.90;;;;;;6036766;23;20254;-70
2022/11/05 11:11:36;;;;;;;0.90;0.90;;;11.00;99.90;;;;;;6035192;23;20226;-70
2022/11/05 11:14:05;;;;;;;1.58;0.80;;;11.00;99.90;;;;;;6035965;23;20210;-70
2022/11/05 11:16:36;;;;;;;0.68;0.68;;;11.10;99.90;;;;;;6036818;23;20194;-69
2022/11/05 11:19:04;;;;;;;1.33;0.73;;;11.10;99.90;;;;;;6038263;23;20171;-69
2022/11/05 11:21:33;;;;;;;0.85;0.85;;;11.10;99.90;;;;;;6036028;23;20212;-70
2022/11/05 11:24:02;;;;;;;3.83;0.82;;;11.20;99.90;;;;;;6035230;23;20182;-70
2022/11/05 11:26:31;;;;;;;1.85;0.50;;;11.20;99.90;;;;;;6034507;23;20685;-70
2022/11/05 11:28:59;;;;;;;1.33;1.00;;;11.20;99.90;;;;;;6036790;23;20198;-70
2022/11/05 11:31:28;;;;;;;0.63;0.63;;;11.20;99.90;;;;;;6037614;23;20208;-70
2022/11/05 11:34:02;;;;;;;0.63;0.63;;;11.20;99.90;;;;;;6037105;23;20518;-70
2022/11/05 11:36:36;;;;;;;1.42;1.42;;;11.30;99.90;;;;;;6037108;23;20502;-70
2022/11/05 11:39:05;;;;;;;3.05;0.60;;;11.30;99.90;;;;;;6037917;23;20678;-70
2022/11/05 11:41:36;;;;;;;0.57;0.57;;;11.30;99.90;;;;;;6037319;23;20572;-70
2022/11/05 11:44:07;;;;;;;1.20;1.02;;;11.40;99.90;;;;;;6035881;23;20193;-70
2022/11/05 11:46:35;;;;;;;0.57;0.57;;;11.40;99.90;;;;;;6036741;23;20172;-69
2022/11/05 11:49:02;;;;;;;2.67;1.08;;;11.40;99.90;;;;;;6037845;23;20191;-69
2022/11/05 11:51:39;;;;;;;0.55;0.55;;;11.40;99.90;;;;;;6036789;23;20210;-69
2022/11/05 11:54:17;;;;;;;4.95;0.77;;;11.50;99.90;;;;;;6037068;23;20181;-69
2022/11/05 11:56:45;;;;;;;16.05;1.77;;;11.50;99.90;;;;;;6036019;23;20179;-71
2022/11/05 11:59:21;;;;;;;0.40;0.40;;;11.50;99.90;;;;;;6035565;23;20198;-69
2022/11/05 12:02:28;;;;;;;1.02;1.02;;;11.60;99.90;;;;;;6034736;23;20214;-69
2022/11/05 12:05:13;;;;;;;4.03;0.98;;;11.60;99.90;;;;;;6025580;23;20194;-70
2022/11/05 12:07:51;;;;;;;8.80;0.68;;;11.70;99.90;;;;;;6037087;23;20497;-69
2022/11/05 12:10:45;;;;;;;1.08;1.08;;;11.70;99.90;;;;;;6036602;23;20680;-70
2022/11/05 12:13:53;;;;;;;0.77;0.55;;;11.70;99.90;;;;;;6032925;23;20525;-70
2022/11/05 12:16:34;;;;;;;0.75;0.68;;;11.80;99.90;;;;;;6034812;23;20174;-70
2022/11/05 12:19:11;;;;;;;0.90;0.82;;;11.80;99.90;;;;;;6037506;23;20761;-70
2022/11/05 12:21:44;;;;;;;0.52;0.52;;;11.80;99.90;;;;;;6037039;23;20207;-70
2022/11/05 12:24:29;;;;;;;1.90;1.37;;;11.80;99.90;;;;;;6037250;23;20251;-70
2022/11/05 12:27:05;;;;;;;0.40;0.40;;;11.90;99.90;;;;;;6036808;23;20415;-70
2022/11/05 12:29:43;;;;;;;0.65;0.65;;;11.90;99.90;;;;;;6035724;23;20192;-70
2022/11/05 12:32:31;;;;;;;0.50;0.50;;;11.90;99.90;;;;;;6036226;23;20254;-69
2022/11/05 12:35:08;;;;;;;0.98;0.95;;;12.00;99.90;;;;;;6036377;23;20180;-68
2022/11/05 12:37:41;;;;;;;0.40;0.40;;;12.00;99.90;;;;;;6037669;23;20223;-69
2022/11/05 12:40:26;;;;;;;0.53;0.53;;;11.90;99.90;;;;;;6036454;23;20415;-70
2022/11/05 12:43:03;;;;;;;1.00;0.90;;;11.90;99.90;;;;;;6036460;23;20447;-70
2022/11/05 12:45:44;;;;;;;0.90;0.90;;;11.90;99.90;;;;;;6036592;23;20419;-70
2022/11/05 12:48:28;;;;;;;1.10;1.05;;;11.90;99.90;;;;;;6035879;23;20422;-70
2022/11/05 12:51:01;;;;;;;0.63;0.63;;;12.00;99.90;;;;;;6036228;23;20208;-69
2022/11/05 12:53:52;;;;;;;0.60;0.60;;;12.00;99.90;;;;;;6036420;23;20235;-69
2022/11/05 12:56:26;;;;;;;0.90;0.90;;;12.00;99.90;;;;;;6036854;23;20176;-69
2022/11/05 12:58:59;;;;;;;0.90;0.90;;;11.90;99.90;;;;;;6036512;23;20523;-69
2022/11/05 13:01:33;;;;;;;1.00;0.40;;;11.90;99.90;;;;;;6035897;23;20464;-70
2022/11/05 13:04:05;;;;;;;3.60;0.75;;;11.90;99.90;;;;;;6034975;23;20435;-70
2022/11/05 13:06:36;;;;;;;0.70;0.70;;;11.90;99.90;;;;;;6036548;23;20178;-70
2022/11/05 13:09:08;;;;;;;0.60;0.60;;;11.90;99.90;;;;;;6034302;23;20486;-70
2022/11/05 13:11:42;;;;;;;2.10;1.03;;;11.90;99.90;;;;;;6037556;23;20452;-70
2022/11/05 13:14:12;;;;;;;0.70;0.65;;;11.90;99.90;;;;;;6035971;23;20413;-70
2022/11/05 13:16:43;;;;;;;2.78;0.70;;;11.90;99.90;;;;;;6037194;23;20187;-70
2022/11/05 13:19:16;;;;;;;0.70;0.70;;;11.90;99.90;;;;;;6037592;23;20195;-71
2022/11/05 13:21:47;;;;;;;1.13;1.00;;;11.90;99.90;;;;;;6035200;23;20215;-71
2022/11/05 13:24:18;;;;;;;2.38;0.90;;;11.90;99.90;;;;;;6036587;23;20411;-71
2022/11/05 13:26:52;;;;;;;4.77;1.00;;;11.90;99.90;;;;;;6036749;23;20478;-71
2022/11/05 13:29:25;;;;;;;0.50;0.50;;;11.90;99.90;;;;;;6037465;23;20441;-71
2022/11/05 13:31:56;;;;;;;1.30;1.30;;;11.80;99.90;;;;;;6036547;23;20448;-71
2022/11/05 13:34:23;;;;;;;0.63;0.63;;;11.90;99.90;;;;;;6035585;23;20173;-71
2022/11/05 13:39:46;;;;;;;1.90;0.50;;;12.00;99.90;;;;;;6036938;23;20399;-70
2022/11/05 13:42:36;;;;;;;1.70;0.83;;;12.10;99.90;;;;;;6036463;23;20463;-72
2022/11/05 13:45:22;;;;;;;0.83;0.83;;;12.10;99.90;;;;;;6037440;23;20412;-71
2022/11/05 13:48:03;;;;;;;1.40;1.30;;;12.10;99.90;;;;;;6036281;23;20407;-70
2022/11/05 13:50:53;;;;;;;0.80;0.80;;;12.10;99.90;;;;;;6036976;23;20178;-70
2022/11/05 13:54:05;;;;;;;0.53;0.53;;;12.00;99.90;;;;;;6036074;23;20459;-70
2022/11/05 13:56:45;;;;;;;1.80;1.47;;;12.10;99.90;;;;;;5983442;23;20443;-70
2022/11/05 13:59:34;;;;;;;0.75;0.75;;;12.20;99.90;;;;;;6037942;23;20418;-69
2022/11/05 14:02:04;;;;;;;2.50;0.80;;;12.10;99.90;;;;;;6035506;23;20669;-70
2022/11/05 14:04:35;;;;;;;1.13;1.13;;;12.10;99.90;;;;;;6036180;23;20440;-70
2022/11/05 14:07:07;;;;;;;3.60;1.13;;;12.10;99.90;;;;;;6037051;23;20423;-70
2022/11/05 14:09:36;;;;;;;0.80;0.80;;;12.00;99.90;;;;;;6033526;23;20451;-69
2022/11/05 14:12:05;;;;;;;1.05;0.88;;;11.90;99.90;;;;;;6036213;23;20464;-70
2022/11/05 14:14:43;;;;;;;0.77;0.77;;;11.90;99.90;;;;;;6035509;23;20648;-69
2022/11/05 14:17:15;;;;;;;1.42;1.00;;;11.80;99.90;;;;;;6036471;23;20416;-69
2022/11/05 14:20:08;;;;;;;0.80;0.80;;;11.80;99.90;;;;;;6036172;23;20698;-69
2022/11/05 14:22:40;;;;;;;1.10;1.10;;;11.70;99.90;;;;;;6034513;23;20219;-70
2022/11/05 14:25:39;;;;;;;0.50;0.50;;;11.70;99.90;;;;;;6037112;23;20427;-71
2022/11/05 14:28:28;;;;;;;1.20;1.10;;;11.70;99.90;;;;;;6022432;23;20446;-70
2022/11/05 14:30:56;;;;;;;0.83;0.83;;;11.60;99.90;;;;;;6038078;23;20448;-70
2022/11/05 14:33:37;;;;;;;0.75;0.68;;;11.60;99.90;;;;;;6037429;23;20439;-70
2022/11/05 14:36:33;;;;;;;1.20;1.10;;;11.50;99.90;;;;;;6036640;23;20172;-70
2022/11/05 14:39:19;;;;;;;1.98;1.88;;;11.50;99.90;;;;;;6013205;23;20191;-71
2022/11/05 14:42:03;;;;;;;3.28;2.30;;;11.40;99.90;;;;;;6036796;23;20206;-72
2022/11/05 14:44:32;;;;;;;1.27;1.27;;;11.40;99.90;;;;;;6036447;23;20273;-71
2022/11/05 14:47:04;;;;;;;1.30;1.30;;;11.30;99.90;;;;;;6036682;23;20718;-71
2022/11/05 14:49:36;;;;;;;1.33;1.33;;;11.30;99.90;;;;;;6037436;23;20176;-71
2022/11/05 14:52:07;;;;;;;1.48;1.42;;;11.20;99.90;;;;;;6037877;23;20207;-71
2022/11/05 14:54:41;;;;;;;2.70;2.60;;;11.10;99.90;;;;;;6037666;23;20178;-71
2022/11/05 14:57:12;;;;;;;5.20;2.45;;;11.00;99.90;;;;;;6036630;23;20647;-71
2022/11/05 15:00:00;;;;;;;1.70;1.60;;;10.90;99.90;;;;;;6036980;23;20186;-71
2022/11/05 15:02:34;;;;;;;2.60;1.77;;;10.90;99.90;;;;;;6037358;23;20304;-71
2022/11/05 15:05:39;;;;;;;2.58;1.73;;;10.80;99.90;;;;;;6039300;23;20173;-71
2022/11/05 15:08:31;;;;;;;1.70;1.67;;;10.80;99.90;;;;;;6038583;23;20579;-71
2022/11/05 15:11:07;;;;;;;2.33;2.22;;;10.70;99.90;;;;;;6039427;23;20547;-71
2022/11/05 15:13:40;;;;;;;1.58;1.20;;;10.60;99.90;;;;;;6039669;23;20189;-71
2022/11/05 15:16:07;;;;;;;2.80;1.55;;;10.60;99.90;;;;;;6039323;23;20196;-71
2022/11/05 15:18:43;;;;;;;1.63;1.52;;;10.60;99.90;;;;;;6038952;23;20277;-71
2022/11/05 15:21:14;;;;;;;2.70;1.27;;;10.60;99.90;;;;;;6038557;23;20204;-71
2022/11/05 15:23:43;;;;;;;1.52;1.42;;;10.50;99.90;;;;;;6038158;23;20202;-71
2022/11/05 15:26:14;;;;;;;1.48;1.35;;;10.50;99.90;;;;;;6039212;23;20192;-71
2022/11/05 15:28:44;;;;;;;2.38;2.28;;;10.40;99.90;;;;;;6036485;23;20169;-71
2022/11/05 15:31:28;;;;;;;3.90;1.58;;;10.40;99.90;;;;;;6036774;23;20214;-71
2022/11/05 15:34:17;;;;;;;2.85;2.75;;;10.40;99.90;;;;;;6037576;23;20171;-72
2022/11/05 15:36:48;;;;;;;3.05;2.67;;;10.20;99.90;;;;;;6037793;23;20192;-71
2022/11/05 15:39:38;;;;;;;4.10;2.30;;;10.20;99.90;;;;;;6037465;23;20182;-71
2022/11/05 15:42:11;;;;;;;4.25;3.42;;;10.10;99.90;;;;;;6037194;23;20210;-71
2022/11/05 15:44:39;;;;;;;10.35;3.55;;;10.00;99.90;;;;;;6035629;23;20509;-72
2022/11/05 15:47:11;;;;;;;8.65;4.05;;;10.00;99.90;;;;;;6036672;23;20531;-71
2022/11/05 15:49:41;;;;;;;4.03;3.63;;;9.90;99.90;;;;;;6036649;23;20180;-71
2022/11/05 15:52:11;;;;;;;3.50;2.80;;;9.90;99.90;;;;;;6038160;23;20209;-71
2022/11/05 15:54:38;;;;;;;2.63;2.53;;;9.80;99.90;;;;;;6037758;23;20189;-72
2022/11/05 15:57:04;;;;;;;3.15;2.92;;;9.80;99.90;;;;;;6038733;23;20192;-71
2022/11/05 15:59:33;;;;;;;2.47;2.28;;;9.70;99.90;;;;;;6038318;23;20188;-72
2022/11/05 16:02:14;;;;;;;2.78;2.42;;;9.70;99.90;;;;;;6037588;23;20776;-71
2022/11/05 16:04:47;;;;;;;2.40;2.13;;;9.70;99.90;;;;;;6038239;23;20271;-71
2022/11/05 16:07:14;;;;;;;2.28;2.17;;;9.60;99.90;;;;;;6038451;23;20221;-72
2022/11/05 16:09:49;;;;;;;9.68;3.70;;;9.60;99.90;;;;;;6038316;23;20185;-71
2022/11/05 16:12:27;;;;;;;4.68;2.42;;;9.60;99.90;;;;;;6037518;23;20206;-70
2022/11/05 16:15:02;;;;;;;2.10;2.00;;;9.60;99.90;;;;;;6037290;23;20468;-71
2022/11/05 16:17:32;;;;;;;2.33;2.20;;;9.50;99.90;;;;;;6038118;23;20170;-71
2022/11/05 16:20:00;;;;;;;2.00;1.90;;;9.50;99.90;;;;;;6038276;23;20248;-70
2022/11/05 16:22:45;;;;;;;7.60;2.22;;;9.50;99.90;;;;;;6037742;23;20312;-72
2022/11/05 16:25:31;;;;;;;2.70;2.47;;;9.50;99.90;;;;;;6036812;23;20483;-71
2022/11/05 16:28:00;;;;;;;3.10;2.85;;;9.50;99.90;;;;;;6038039;23;20168;-70
2022/11/05 16:30:27;;;;;;;3.92;3.83;;;9.50;99.90;;;;;;6037296;23;20554;-70
2022/11/05 16:32:54;;;;;;;4.95;4.45;;;9.50;99.90;;;;;;6035992;23;20196;-71
2022/11/05 16:35:24;;;;;;;3.47;3.28;;;9.50;99.90;;;;;;6037168;23;20261;-71
2022/11/05 16:37:52;;;;;;;5.22;2.88;;;9.50;99.90;;;;;;6037131;23;20187;-70
2022/11/05 16:40:21;;;;;;;1.58;1.58;;;9.50;99.90;;;;;;6038536;23;20216;-70
2022/11/05 16:42:50;;;;;;;2.35;2.25;;;9.60;99.90;;;;;;6034071;23;20526;-71
2022/11/05 16:45:19;;;;;;;5.78;3.25;;;9.50;99.90;;;;;;6037381;23;20215;-71
2022/11/05 16:47:46;;;;;;;2.88;2.78;;;9.50;99.90;;;;;;6037081;23;20513;-71
2022/11/05 16:50:20;;;;;;;6.10;3.75;;;9.50;99.90;;;;;;6037852;23;20189;-70
2022/11/05 16:52:48;;;;;;;4.00;3.60;;;9.50;99.90;;;;;;6036925;23;20180;-70
2022/11/05 16:55:16;;;;;;;7.22;2.85;;;9.50;99.90;;;;;;6038959;23;20256;-71
2022/11/05 16:57:45;;;;;;;2.70;2.50;;;9.50;99.90;;;;;;6037727;23;20187;-71
2022/11/05 17:00:15;;;;;;;2.30;2.20;;;9.50;99.90;;;;;;6037286;23;20755;-70
2022/11/05 17:02:41;;;;;;;5.05;3.40;;;9.50;99.90;;;;;;6036677;23;20214;-71
2022/11/05 17:05:17;;;;;;;3.45;2.42;;;9.50;99.90;;;;;;6046513;23;20200;-71
2022/11/05 17:07:44;;;;;;;4.22;3.40;;;9.50;99.90;;;;;;6037762;23;20231;-71
2022/11/05 17:10:12;;;;;;;3.17;2.97;;;9.50;99.90;;;;;;6037796;23;20188;-71
2022/11/05 17:12:39;;;;;;;6.57;5.30;;;9.50;99.90;;;;;;6047556;23;20349;-70
2022/11/05 17:15:18;;;;;;;5.35;4.47;;;9.50;99.90;;;;;;6038446;23;20196;-72
2022/11/05 17:17:45;;;;;;;2.28;2.28;;;9.50;99.90;;;;;;6038023;23;20169;-72
2022/11/05 17:20:19;;;;;;;3.30;3.00;;;9.50;99.90;;;;;;6035276;23;20185;-70
2022/11/05 17:22:45;;;;;;;2.97;2.78;;;9.50;99.90;;;;;;6035144;23;20169;-71
2022/11/05 17:25:13;;;;;;;4.68;3.80;;;9.50;99.90;;;;;;6035356;23;20220;-71
2022/11/05 17:27:40;;;;;;;7.85;4.18;;;9.50;99.90;;;;;;6037470;23;20193;-72
2022/11/05 17:30:09;;;;;;;5.60;3.28;;;9.50;99.90;;;;;;6035556;23;20192;-72
2022/11/05 17:32:35;;;;;;;3.28;2.85;;;9.50;99.90;;;;;;6036549;23;20207;-71
2022/11/05 17:35:02;;;;;;;4.10;3.00;;;9.50;99.90;;;;;;6034294;23;20816;-71
2022/11/05 17:37:29;;;;;;;4.60;4.20;;;9.50;99.90;;;;;;6033438;23;20189;-71
2022/11/05 17:39:56;;;;;;;3.92;3.25;;;9.50;99.90;;;;;;6038245;23;20236;-72
2022/11/05 17:42:24;;;;;;;7.97;4.32;;;9.50;99.90;;;;;;6039752;23;20208;-71
2022/11/05 17:44:51;;;;;;;3.70;3.42;;;9.50;99.90;;;;;;6037006;23;20197;-71
2022/11/05 17:47:17;;;;;;;3.80;3.45;;;9.50;99.90;;;;;;6038269;23;20206;-72
2022/11/05 17:49:44;;;;;;;6.28;3.70;;;9.40;99.90;;;;;;6037943;23;20189;-71
2022/11/05 17:52:11;;;;;;;10.05;4.15;;;9.40;99.90;;;;;;6038963;23;20205;-71
2022/11/05 17:54:38;;;;;;;6.28;3.78;;;9.40;99.90;;;;;;6038323;23;20193;-72
2022/11/05 17:57:05;;;;;;;4.50;4.10;;;9.40;99.90;;;;;;6037880;23;20283;-73
2022/11/05 17:59:33;;;;;;;4.60;4.32;;;9.40;99.90;;;;;;6038944;23;20191;-71
2022/11/05 18:02:00;;;;;;;2.90;2.80;;;9.40;99.90;;;;;;6038320;23;20526;-71
2022/11/05 18:04:26;;;;;;;5.00;3.63;;;9.40;99.90;;;;;;6039023;23;20209;-72
2022/11/05 18:06:53;;;;;;;3.00;2.80;;;9.40;99.90;;;;;;6039224;23;20214;-71
2022/11/05 18:09:20;;;;;;;6.97;3.30;;;9.40;99.90;;;;;;6041714;23;20184;-72
2022/11/05 18:11:47;;;;;;;4.75;4.20;;;9.30;99.90;;;;;;6040960;23;20218;-72
2022/11/05 18:14:13;;;;;;;5.90;3.92;;;9.40;99.90;;;;;;6040049;23;20283;-71
2022/11/05 18:16:41;;;;;;;3.10;2.80;;;9.40;99.90;;;;;;6038667;23;20521;-71
2022/11/05 18:19:08;;;;;;;4.15;3.63;;;9.40;99.90;;;;;;6041880;23;20192;-73